createdAt,value
2023-04-20T00:02:58.937Z,7.24
2023-04-20T00:06:44.180Z,7.23
2023-04-20T00:10:07.761Z,7.22
2023-04-20T00:13:37.020Z,7.21
2023-04-20T00:17:14.769Z,7.15
2023-04-20T00:20:32.174Z,7.09
2023-04-20T00:24:06.258Z,7.20
2023-04-20T00:27:30.407Z,7.09
2023-04-20T00:31:04.027Z,7.07
2023-04-20T00:34:22.703Z,7.10
2023-04-20T00:37:49.061Z,7.14
2023-04-20T00:41:24.428Z,7.13
2023-04-20T00:45:12.193Z,7.17
2023-04-20T00:48:29.902Z,7.15
2023-04-20T00:52:01.533Z,7.12
2023-04-20T00:55:24.167Z,7.18
2023-04-20T00:58:56.522Z,7.12
2023-04-20T01:01:59.663Z,7.05
2023-04-20T01:05:45.147Z,7.06
2023-04-20T01:09:03.028Z,6.98
2023-04-20T01:12:24.777Z,6.93
2023-04-20T01:15:41.838Z,6.95
2023-04-20T01:19:01.618Z,6.95
2023-04-20T01:23:03.772Z,6.89
2023-04-20T01:26:25.098Z,6.81
2023-04-20T01:29:53.230Z,6.75
2023-04-20T01:33:17.472Z,6.75
2023-04-20T01:36:36.014Z,6.73
2023-04-20T01:39:43.915Z,6.68
2023-04-20T01:43:08.565Z,6.55
2023-04-20T01:46:26.680Z,6.53
2023-04-20T01:49:43.502Z,6.50
2023-04-20T01:53:04.151Z,6.47
2023-04-20T01:56:38.500Z,6.43
2023-04-20T02:00:04.402Z,6.47
2023-04-20T02:03:37.288Z,6.42
2023-04-20T02:07:05.687Z,6.42
2023-04-20T02:10:30.615Z,6.40
2023-04-20T02:13:51.680Z,6.30
2023-04-20T02:17:18.344Z,6.27
2023-04-20T02:20:45.955Z,6.28
2023-04-20T02:24:20.610Z,6.11
2023-04-20T02:27:56.231Z,6.14
2023-04-20T02:31:23.125Z,6.08
2023-04-20T02:35:06.860Z,6.02
2023-04-20T02:38:52.886Z,6.08
2023-04-20T02:42:12.765Z,6.09
2023-04-20T02:45:33.922Z,5.98
2023-04-20T02:49:03.546Z,5.92
2023-04-20T02:52:35.527Z,5.95
2023-04-20T02:55:53.783Z,5.94
2023-04-20T02:59:38.706Z,5.98
2023-04-20T03:03:05.180Z,5.89
2023-04-20T03:06:38.693Z,5.88
2023-04-20T03:10:06.419Z,5.87
2023-04-20T03:13:41.595Z,5.82
2023-04-20T03:16:59.140Z,5.83
2023-04-20T03:20:28.226Z,5.75
2023-04-20T03:24:02.874Z,5.77
2023-04-20T03:27:46.409Z,5.76
2023-04-20T03:31:12.222Z,5.83
2023-04-20T03:34:55.610Z,5.84
2023-04-20T03:38:13.110Z,5.84
2023-04-20T03:41:47.533Z,5.80
2023-04-20T03:45:22.998Z,5.86
2023-04-20T03:48:49.990Z,5.90
2023-04-20T03:52:24.644Z,5.97
2023-04-20T03:56:00.185Z,6.09
2023-04-20T03:59:17.896Z,6.17
2023-04-20T04:02:44.153Z,6.31
2023-04-20T04:06:17.000Z,6.40
2023-04-20T04:09:44.035Z,6.53
2023-04-20T04:13:01.024Z,6.69
2023-04-20T04:16:28.344Z,6.83
2023-04-20T04:20:02.563Z,6.98
2023-04-20T04:23:38.214Z,7.10
2023-04-20T04:26:59.589Z,7.22
2023-04-20T04:30:27.563Z,7.39
2023-04-20T04:34:02.765Z,7.52
2023-04-20T04:37:25.307Z,7.64
2023-04-20T04:41:04.970Z,7.65
2023-04-20T04:44:23.465Z,7.66
2023-04-20T04:47:42.650Z,7.72
2023-04-20T04:51:19.577Z,7.83
2023-04-20T04:54:36.822Z,7.90
2023-04-20T04:58:03.807Z,7.96
2023-04-20T05:01:37.882Z,8.00
2023-04-20T05:05:10.311Z,8.09
2023-04-20T05:08:27.767Z,8.21
2023-04-20T05:11:55.419Z,8.37
2023-04-20T05:15:11.078Z,8.46
2023-04-20T05:18:14.822Z,8.57
2023-04-20T05:21:48.589Z,8.71
2023-04-20T05:25:15.863Z,8.88
2023-04-20T05:28:37.212Z,8.96
2023-04-20T05:31:48.341Z,9.09
2023-04-20T05:35:27.340Z,9.15
2023-04-20T05:39:23.909Z,9.32
2023-04-20T05:42:42.132Z,9.50
2023-04-20T05:45:58.767Z,9.62
2023-04-20T05:49:18.875Z,9.82
2023-04-20T05:53:03.814Z,9.91
2023-04-20T05:56:28.159Z,10.11
2023-04-20T06:00:04.448Z,10.24
2023-04-20T06:03:40.328Z,10.42
2023-04-20T06:07:12.782Z,10.50
2023-04-20T06:14:14.606Z,10.81
2023-04-20T06:17:40.900Z,10.80
2023-04-20T06:21:25.652Z,10.91
2023-04-20T06:25:00.850Z,10.93
2023-04-20T06:28:15.795Z,11.09
2023-04-20T06:31:34.664Z,11.32
2023-04-20T06:34:38.203Z,11.57
2023-04-20T06:38:02.911Z,11.65
2023-04-20T06:41:45.979Z,11.89
2023-04-20T06:45:01.265Z,12.13
2023-04-20T06:48:31.964Z,12.29
2023-04-20T06:51:58.195Z,12.37
2023-04-20T06:55:15.130Z,12.54
2023-04-20T06:58:54.129Z,12.31
2023-04-20T07:02:48.588Z,12.95
2023-04-20T07:06:26.498Z,13.08
2023-04-20T07:10:20.900Z,13.10
2023-04-20T07:14:01.236Z,13.41
2023-04-20T07:21:07.243Z,13.38
2023-04-20T07:24:39.002Z,13.79
2023-04-20T07:28:08.406Z,13.53
2023-04-20T07:31:26.333Z,14.17
2023-04-20T07:34:43.926Z,14.46
2023-04-20T07:38:22.219Z,14.80
2023-04-20T07:42:03.617Z,15.02
2023-04-20T07:45:23.302Z,15.55
2023-04-20T07:48:49.546Z,15.75
2023-04-20T07:52:33.149Z,16.33
2023-04-20T07:56:12.904Z,16.41
2023-04-20T07:59:53.627Z,16.30
2023-04-20T08:03:20.761Z,16.34
2023-04-20T08:07:01.772Z,17.32
2023-04-20T08:10:35.517Z,17.51
2023-04-20T08:14:10.410Z,18.45
2023-04-20T08:17:48.527Z,18.96
2023-04-20T08:21:27.505Z,19.66
2023-04-20T08:25:09.470Z,20.22
2023-04-20T08:32:19.480Z,20.89
2023-04-20T08:35:59.254Z,20.79
2023-04-20T08:39:39.358Z,19.75
2023-04-20T08:43:07.359Z,20.66
2023-04-20T08:46:44.425Z,21.28
2023-04-20T08:50:08.803Z,21.64
2023-04-20T08:53:29.951Z,21.92
2023-04-20T08:56:59.995Z,22.06
2023-04-20T09:00:34.885Z,22.86
2023-04-20T09:04:28.755Z,22.50
2023-04-20T09:08:06.641Z,22.44
2023-04-20T09:11:37.009Z,23.15
2023-04-20T09:14:56.172Z,23.76
2023-04-20T09:18:23.065Z,23.78
2023-04-20T09:22:00.708Z,21.74
2023-04-20T09:25:32.495Z,22.32
2023-04-20T09:37:16.661Z,23.18
2023-04-20T09:40:56.908Z,23.75
2023-04-20T09:44:28.918Z,24.79
2023-04-20T09:48:27.134Z,24.31
2023-04-20T09:51:58.183Z,24.47
2023-04-20T09:55:38.285Z,23.74
2023-04-20T10:03:03.812Z,24.51
2023-04-20T10:11:44.545Z,23.71
2023-04-20T10:19:13.981Z,24.78
2023-04-20T10:23:30.203Z,24.77
2023-04-20T10:31:03.810Z,23.48
2023-04-20T10:34:39.070Z,24.69
2023-04-20T10:38:13.718Z,25.09
2023-04-20T10:42:08.697Z,24.60
2023-04-20T11:35:30.683Z,22.09
2023-04-20T12:18:21.672Z,21.76
2023-04-20T12:21:57.802Z,22.05
2023-04-20T12:25:29.168Z,22.95
2023-04-20T12:28:55.265Z,24.04
2023-04-20T12:32:17.400Z,23.70
2023-04-20T12:35:52.298Z,25.02
2023-04-20T12:39:27.017Z,24.15
2023-04-20T12:43:03.770Z,23.54
2023-04-20T12:46:44.240Z,22.51
2023-04-20T12:50:22.079Z,22.43
2023-04-20T12:53:56.075Z,22.13
2023-04-20T12:57:25.627Z,21.99
2023-04-20T13:01:01.622Z,21.96
2023-04-20T13:04:31.714Z,21.96
2023-04-20T13:08:06.255Z,21.55
2023-04-20T13:11:39.846Z,21.18
2023-04-20T13:15:18.871Z,21.63
2023-04-20T13:18:47.559Z,21.36
2023-04-20T13:22:20.992Z,21.39
2023-04-20T13:26:04.911Z,21.12
2023-04-20T13:29:40.677Z,21.39
2023-04-20T13:33:10.866Z,21.74
2023-04-20T13:36:47.692Z,22.16
2023-04-20T13:40:14.610Z,21.89
2023-04-20T13:43:50.974Z,22.26
2023-04-20T13:47:08.459Z,22.02
2023-04-20T13:50:51.436Z,22.73
2023-04-20T13:54:26.270Z,22.56
2023-04-20T13:57:53.801Z,21.88
2023-04-20T14:01:35.104Z,21.69
2023-04-20T14:04:56.854Z,21.90
2023-04-20T14:08:31.391Z,21.74
2023-04-20T14:11:56.892Z,21.56
2023-04-20T14:15:34.620Z,20.81
2023-04-20T14:18:55.169Z,20.50
2023-04-20T14:22:16.624Z,20.38
2023-04-20T14:29:41.527Z,20.10
2023-04-20T14:59:01.706Z,20.08
2023-04-20T15:02:22.029Z,20.55
2023-04-20T15:09:49.880Z,21.57
2023-04-20T15:32:09.972Z,21.46
2023-04-20T15:35:44.902Z,21.24
2023-04-20T15:42:46.247Z,22.03
2023-04-20T15:53:51.663Z,20.96
2023-04-20T15:57:27.957Z,20.73
2023-04-20T16:01:27.995Z,20.55
2023-04-20T16:04:56.460Z,20.04
2023-04-20T16:08:34.782Z,19.35
2023-04-20T16:15:56.550Z,18.81
2023-04-20T16:19:35.043Z,18.48
2023-04-20T16:23:00.763Z,18.13
2023-04-20T16:26:29.381Z,17.96
2023-04-20T16:30:17.854Z,17.78
2023-04-20T16:33:39.293Z,17.83
2023-04-20T16:41:27.789Z,17.94
2023-04-20T16:44:46.775Z,18.04
2023-04-20T16:48:14.187Z,17.92
2023-04-20T16:51:20.462Z,17.76
2023-04-20T16:55:03.221Z,17.74
2023-04-20T16:58:38.068Z,17.63
2023-04-20T17:02:20.535Z,17.48
2023-04-20T17:13:22.587Z,17.07
2023-04-20T17:17:34.631Z,16.90
2023-04-20T17:21:43.638Z,16.74
2023-04-20T17:25:03.214Z,16.52
2023-04-20T17:33:00.429Z,16.20
2023-04-20T18:05:14.939Z,15.81
2023-04-20T18:08:40.593Z,15.69
2023-04-20T18:12:36.903Z,15.61
2023-04-20T18:16:09.858Z,15.58
2023-04-20T18:19:51.613Z,15.53
2023-04-20T18:38:24.680Z,15.23
2023-04-20T18:41:58.750Z,15.36
2023-04-20T18:45:57.488Z,15.35
2023-04-20T18:49:52.769Z,15.39
2023-04-20T18:53:40.130Z,15.33
2023-04-20T19:49:34.776Z,14.45
2023-04-20T21:43:32.012Z,12.26
2023-04-20T21:54:55.205Z,11.82
2023-04-20T21:58:43.225Z,11.75
2023-04-20T22:02:39.494Z,11.68
2023-04-20T22:15:51.804Z,11.62
2023-04-20T22:20:16.776Z,11.60
2023-04-20T22:24:07.010Z,11.58
2023-04-20T22:28:20.742Z,11.55
2023-04-20T22:36:19.924Z,11.56
2023-04-20T22:40:23.186Z,11.44
2023-04-20T22:44:03.329Z,11.21
2023-04-20T22:48:39.052Z,11.07
2023-04-20T22:52:42.232Z,10.99
2023-04-20T22:56:18.018Z,10.85
2023-04-20T23:00:42.699Z,10.74
2023-04-20T23:04:10.168Z,10.60
2023-04-20T23:08:01.447Z,10.52
2023-04-20T23:11:07.021Z,10.55
2023-04-20T23:15:01.755Z,10.55
2023-04-20T23:18:49.018Z,10.62
2023-04-20T23:27:07.278Z,10.51
2023-04-20T23:31:00.112Z,10.39
2023-04-20T23:34:33.954Z,10.30
2023-04-20T23:38:45.702Z,10.18
2023-04-20T23:42:38.502Z,10.01
2023-04-20T23:46:15.597Z,9.90
2023-04-20T23:50:17.887Z,9.85
2023-04-20T23:54:21.513Z,9.87
2023-04-20T23:57:48.124Z,9.82
